createdAt,value
2019-05-19T00:01:33.561Z,7.60
2019-05-19T00:04:02.957Z,7.03
2019-05-19T00:06:32.386Z,7.17
2019-05-19T00:09:01.740Z,8.58
2019-05-19T00:11:31.159Z,6.60
2019-05-19T00:14:00.549Z,6.62
2019-05-19T00:16:29.971Z,7.28
2019-05-19T00:18:59.355Z,8.43
2019-05-19T00:21:28.759Z,10.82
2019-05-19T00:23:59.856Z,7.60
2019-05-19T00:26:29.371Z,7.33
2019-05-19T00:28:58.825Z,8.93
2019-05-19T00:31:28.217Z,8.08
2019-05-19T00:33:57.637Z,8.73
2019-05-19T00:36:27.059Z,8.78
2019-05-19T00:38:56.470Z,7.67
2019-05-19T00:41:27.176Z,8.90
2019-05-19T00:43:56.577Z,8.03
2019-05-19T00:46:26.131Z,8.55
2019-05-19T00:48:55.532Z,8.70
2019-05-19T00:51:25.047Z,10.33
2019-05-19T00:53:54.535Z,9.65
2019-05-19T00:56:24.491Z,8.75
2019-05-19T00:58:55.488Z,8.30
2019-05-19T01:01:25.124Z,8.28
2019-05-19T01:03:54.530Z,8.60
2019-05-19T01:06:24.022Z,7.83
2019-05-19T01:08:53.502Z,11.10
2019-05-19T01:11:22.886Z,12.23
2019-05-19T01:13:52.269Z,8.60
2019-05-19T01:16:21.686Z,8.98
2019-05-19T01:18:51.079Z,8.88
2019-05-19T01:21:20.862Z,8.43
2019-05-19T01:23:50.251Z,8.20
2019-05-19T01:26:19.670Z,9.10
2019-05-19T01:28:48.998Z,10.47
2019-05-19T01:31:18.648Z,8.70
2019-05-19T01:33:48.054Z,8.90
2019-05-19T01:36:17.440Z,6.90
2019-05-19T01:38:47.016Z,7.47
2019-05-19T01:41:16.425Z,8.40
2019-05-19T01:43:45.855Z,8.28
2019-05-19T01:46:15.297Z,8.93
2019-05-19T01:48:44.725Z,8.13
2019-05-19T01:51:14.158Z,8.75
2019-05-19T01:53:43.682Z,8.20
2019-05-19T01:56:13.399Z,8.33
2019-05-19T01:58:42.891Z,8.60
2019-05-19T02:01:12.306Z,8.67
2019-05-19T02:03:41.764Z,10.05
2019-05-19T02:06:11.457Z,8.77
2019-05-19T02:08:40.862Z,9.03
2019-05-19T02:11:10.275Z,9.60
2019-05-19T02:13:39.714Z,9.33
2019-05-19T02:16:09.127Z,10.07
2019-05-19T02:18:38.539Z,8.28
2019-05-19T02:21:07.995Z,8.50
2019-05-19T02:23:37.397Z,10.05
2019-05-19T02:26:06.815Z,9.98
2019-05-19T02:28:36.291Z,9.33
2019-05-19T02:31:05.737Z,8.38
2019-05-19T02:33:35.957Z,9.53
2019-05-19T02:36:05.497Z,7.72
2019-05-19T02:38:34.896Z,9.50
2019-05-19T02:41:06.262Z,9.93
2019-05-19T02:43:37.207Z,8.53
2019-05-19T02:46:07.093Z,9.67
2019-05-19T02:48:38.426Z,8.85
2019-05-19T02:51:09.603Z,9.08
2019-05-19T02:53:39.540Z,9.43
2019-05-19T02:56:09.297Z,8.58
2019-05-19T02:58:39.037Z,8.73
2019-05-19T03:01:08.440Z,7.83
2019-05-19T03:03:37.897Z,8.53
2019-05-19T03:06:07.260Z,9.30
2019-05-19T03:08:36.690Z,9.15
2019-05-19T03:11:06.088Z,8.23
2019-05-19T03:13:35.516Z,10.20
2019-05-19T03:16:04.887Z,8.03
2019-05-19T03:18:34.324Z,8.90
2019-05-19T03:21:10.834Z,9.03
2019-05-19T03:23:34.735Z,9.65
2019-05-19T03:26:04.140Z,8.93
2019-05-19T03:28:33.549Z,9.47
2019-05-19T03:31:34.077Z,10.03
2019-05-19T03:34:03.494Z,8.95
2019-05-19T03:36:32.887Z,8.13
2019-05-19T03:39:02.297Z,9.70
2019-05-19T03:41:31.726Z,10.08
2019-05-19T03:44:01.106Z,9.20
2019-05-19T03:46:30.661Z,9.27
2019-05-19T03:49:00.042Z,9.30
2019-05-19T03:51:31.601Z,9.50
2019-05-19T03:54:00.847Z,9.40
2019-05-19T03:56:30.391Z,8.37
2019-05-19T03:58:59.765Z,9.13
2019-05-19T04:01:29.164Z,10.00
2019-05-19T04:03:59.771Z,9.37
2019-05-19T04:06:29.166Z,9.30
2019-05-19T04:08:58.575Z,9.30
2019-05-19T04:11:27.988Z,8.77
2019-05-19T04:13:57.433Z,9.13
2019-05-19T04:16:26.816Z,9.57
2019-05-19T04:18:56.242Z,9.40
2019-05-19T04:21:25.679Z,8.80
2019-05-19T04:23:55.010Z,9.67
2019-05-19T04:26:24.430Z,9.50
2019-05-19T04:28:53.931Z,9.30
2019-05-19T04:31:23.325Z,9.43
2019-05-19T04:33:52.731Z,9.63
2019-05-19T04:36:22.143Z,8.23
2019-05-19T04:38:51.541Z,8.68
2019-05-19T04:41:21.013Z,8.73
2019-05-19T04:43:50.376Z,8.40
2019-05-19T04:46:19.820Z,9.07
2019-05-19T04:48:49.233Z,8.90
2019-05-19T04:51:19.458Z,10.43
2019-05-19T04:53:48.955Z,9.48
2019-05-19T04:56:19.826Z,8.80
2019-05-19T04:58:49.400Z,9.17
2019-05-19T05:01:18.784Z,9.13
2019-05-19T05:03:48.167Z,8.93
2019-05-19T05:06:17.640Z,8.30
2019-05-19T05:08:47.480Z,9.35
2019-05-19T05:11:16.899Z,9.35
2019-05-19T05:13:46.319Z,9.33
2019-05-19T05:16:15.738Z,9.83
2019-05-19T05:18:47.687Z,10.90
2019-05-19T05:21:16.208Z,11.57
2019-05-19T05:23:45.635Z,10.58
2019-05-19T05:26:15.116Z,10.93
2019-05-19T05:28:44.612Z,11.63
2019-05-19T05:31:15.597Z,11.03
2019-05-19T05:33:45.160Z,11.43
2019-05-19T05:36:14.541Z,10.58
2019-05-19T05:38:43.982Z,11.33
2019-05-19T05:41:13.479Z,11.95
2019-05-19T05:43:42.892Z,11.57
2019-05-19T05:46:12.306Z,11.93
2019-05-19T05:48:41.716Z,12.37
2019-05-19T05:51:11.403Z,12.47
2019-05-19T05:53:40.807Z,11.97
2019-05-19T05:56:10.276Z,11.97
2019-05-19T05:58:39.837Z,11.30
2019-05-19T06:01:09.274Z,12.70
2019-05-19T06:03:38.701Z,11.48
2019-05-19T06:06:08.122Z,12.53
2019-05-19T06:08:37.554Z,12.73
2019-05-19T06:11:06.971Z,11.93
2019-05-19T06:13:36.359Z,12.15
2019-05-19T06:16:05.771Z,11.48
2019-05-19T06:18:35.186Z,10.63
2019-05-19T06:21:05.465Z,12.15
2019-05-19T06:23:34.918Z,11.20
2019-05-19T06:26:04.307Z,11.03
2019-05-19T06:28:33.742Z,11.97
2019-05-19T06:31:03.132Z,10.93
2019-05-19T06:33:32.534Z,9.23
2019-05-19T06:36:01.916Z,9.23
2019-05-19T06:38:31.340Z,9.28
2019-05-19T06:41:00.719Z,9.60
2019-05-19T06:43:30.127Z,9.70
2019-05-19T06:45:59.524Z,8.58
2019-05-19T06:48:28.888Z,8.75
2019-05-19T06:50:58.332Z,8.75
2019-05-19T06:53:27.731Z,9.13
2019-05-19T06:55:57.166Z,9.18
2019-05-19T06:58:26.604Z,8.70
2019-05-19T07:00:58.991Z,9.28
2019-05-19T07:03:27.380Z,9.50
2019-05-19T07:05:56.792Z,10.48
2019-05-19T07:08:26.191Z,9.38
2019-05-19T07:10:55.672Z,8.83
2019-05-19T07:13:25.085Z,8.90
2019-05-19T07:15:54.545Z,9.63
2019-05-19T07:18:24.229Z,11.25
2019-05-19T07:20:53.632Z,10.90
2019-05-19T07:23:28.381Z,10.05
2019-05-19T07:25:54.421Z,10.20
2019-05-19T07:28:23.848Z,9.95
2019-05-19T07:30:53.233Z,9.78
2019-05-19T07:33:22.668Z,10.20
2019-05-19T07:35:52.072Z,9.63
2019-05-19T07:38:21.556Z,10.55
2019-05-19T07:40:50.929Z,9.80
2019-05-19T07:43:20.369Z,10.82
2019-05-19T07:45:50.019Z,10.65
2019-05-19T07:48:19.722Z,10.80
2019-05-19T07:50:49.117Z,10.00
2019-05-19T07:53:18.544Z,10.48
2019-05-19T07:55:47.972Z,10.95
2019-05-19T07:58:17.494Z,10.70
2019-05-19T08:00:46.913Z,10.65
2019-05-19T08:03:16.303Z,10.58
2019-05-19T08:05:45.768Z,11.68
2019-05-19T08:08:15.133Z,10.32
2019-05-19T08:10:44.777Z,10.50
2019-05-19T08:13:14.182Z,10.68
2019-05-19T08:15:43.614Z,9.95
2019-05-19T08:18:12.999Z,11.53
2019-05-19T08:20:42.408Z,9.90
2019-05-19T08:23:11.776Z,10.15
2019-05-19T08:25:41.245Z,9.13
2019-05-19T08:28:10.775Z,11.45
2019-05-19T08:30:40.316Z,11.78
2019-05-19T08:33:09.671Z,11.18
2019-05-19T08:35:39.120Z,10.48
2019-05-19T08:38:08.531Z,10.88
2019-05-19T08:40:38.703Z,12.55
2019-05-19T08:43:08.135Z,11.03
2019-05-19T08:45:37.545Z,10.20
2019-05-19T08:48:07.037Z,9.78
2019-05-19T08:50:36.435Z,11.28
2019-05-19T08:53:05.862Z,9.58
2019-05-19T08:55:35.381Z,10.10
2019-05-19T08:58:04.996Z,9.63
2019-05-19T09:00:38.270Z,9.08
2019-05-19T09:03:05.556Z,9.10
2019-05-19T09:05:34.983Z,9.05
2019-05-19T09:08:05.744Z,9.20
2019-05-19T09:10:35.259Z,10.68
2019-05-19T09:13:04.736Z,9.40
2019-05-19T09:15:34.309Z,10.35
2019-05-19T09:18:03.772Z,11.15
2019-05-19T09:20:33.307Z,10.38
2019-05-19T09:23:02.701Z,10.23
2019-05-19T09:25:32.235Z,10.28
2019-05-19T09:28:01.622Z,10.65
2019-05-19T09:30:31.347Z,9.53
2019-05-19T09:33:00.752Z,10.28
2019-05-19T09:35:30.208Z,9.70
2019-05-19T09:37:59.601Z,10.15
2019-05-19T09:40:29.021Z,10.08
2019-05-19T09:42:59.490Z,10.72
2019-05-19T09:45:28.899Z,9.75
2019-05-19T09:47:58.281Z,9.65
2019-05-19T09:50:27.670Z,10.00
2019-05-19T09:52:57.372Z,10.95
2019-05-19T09:55:26.785Z,10.20
2019-05-19T09:57:56.238Z,10.70
2019-05-19T10:00:25.741Z,11.38
2019-05-19T10:02:55.159Z,9.00
2019-05-19T10:05:24.575Z,10.55
2019-05-19T10:07:53.984Z,11.28
2019-05-19T10:10:59.693Z,10.35
2019-05-19T10:13:29.293Z,10.48
2019-05-19T10:15:58.720Z,10.63
2019-05-19T10:18:28.119Z,11.00
2019-05-19T10:20:57.535Z,9.55
2019-05-19T10:23:26.915Z,10.53
2019-05-19T10:25:56.315Z,8.98
2019-05-19T10:28:25.713Z,9.20
2019-05-19T10:30:55.164Z,10.23
2019-05-19T10:33:24.592Z,10.35
2019-05-19T10:35:54.025Z,10.10
2019-05-19T10:38:23.459Z,8.58
2019-05-19T10:40:52.975Z,9.03
2019-05-19T10:43:22.394Z,10.70
2019-05-19T10:46:09.970Z,11.88
2019-05-19T10:48:39.352Z,10.45
2019-05-19T10:51:08.725Z,7.47
2019-05-19T10:53:38.150Z,9.43
2019-05-19T10:56:07.538Z,8.65
2019-05-19T10:58:36.998Z,9.48
2019-05-19T11:01:06.436Z,8.65
2019-05-19T11:03:35.873Z,7.50
2019-05-19T11:06:05.365Z,6.85
2019-05-19T11:08:34.801Z,6.17
2019-05-19T11:11:04.205Z,8.60
2019-05-19T11:13:33.761Z,6.28
2019-05-19T11:16:04.981Z,6.65
2019-05-19T11:18:34.444Z,7.35
2019-05-19T11:21:03.980Z,7.53
2019-05-19T11:23:33.392Z,6.70
2019-05-19T11:26:02.837Z,4.97
2019-05-19T11:28:32.346Z,5.78
2019-05-19T11:31:01.982Z,5.42
2019-05-19T11:33:31.717Z,4.70
2019-05-19T11:36:01.148Z,5.95
2019-05-19T11:38:30.535Z,5.90
2019-05-19T11:40:59.967Z,5.55
2019-05-19T11:43:29.317Z,4.85
2019-05-19T11:45:58.743Z,4.53
2019-05-19T11:48:28.164Z,5.92
2019-05-19T11:50:57.544Z,4.30
2019-05-19T11:53:26.927Z,5.03
2019-05-19T11:56:06.173Z,4.47
2019-05-19T11:58:27.473Z,6.15
2019-05-19T12:00:56.982Z,4.47
2019-05-19T12:03:26.378Z,6.70
2019-05-19T12:05:55.786Z,4.62
2019-05-19T12:08:25.348Z,5.78
2019-05-19T12:10:54.795Z,6.95
2019-05-19T12:13:24.202Z,6.58
2019-05-19T12:15:53.739Z,5.85
2019-05-19T12:18:23.149Z,7.42
2019-05-19T12:20:52.995Z,6.75
2019-05-19T12:23:22.392Z,5.45
2019-05-19T12:25:51.805Z,5.95
2019-05-19T12:28:21.225Z,6.12
2019-05-19T12:30:50.609Z,6.30
2019-05-19T12:33:20.037Z,7.00
2019-05-19T12:35:49.453Z,8.20
2019-05-19T12:38:18.845Z,10.60
2019-05-19T12:40:48.255Z,6.40
2019-05-19T12:43:17.675Z,9.68
2019-05-19T12:45:47.088Z,5.92
2019-05-19T12:48:16.458Z,6.80
2019-05-19T12:50:48.660Z,6.58
2019-05-19T12:53:18.056Z,10.93
2019-05-19T12:55:47.470Z,8.18
2019-05-19T12:58:16.862Z,6.75
2019-05-19T13:00:46.371Z,6.25
2019-05-19T13:03:15.800Z,11.45
2019-05-19T13:05:45.202Z,7.72
2019-05-19T13:08:14.571Z,7.25
2019-05-19T13:10:43.954Z,7.45
2019-05-19T13:13:13.396Z,5.40
2019-05-19T13:15:42.894Z,5.70
2019-05-19T13:18:12.404Z,7.90
2019-05-19T13:20:41.804Z,5.95
2019-05-19T13:23:11.217Z,5.08
2019-05-19T13:25:40.595Z,5.00
2019-05-19T13:28:10.020Z,5.25
2019-05-19T13:30:39.388Z,5.53
2019-05-19T13:33:08.854Z,5.90
2019-05-19T13:35:38.232Z,4.80
2019-05-19T13:38:07.674Z,4.15
2019-05-19T13:40:37.072Z,3.33
2019-05-19T13:43:06.459Z,5.12
2019-05-19T13:45:35.906Z,6.40
2019-05-19T13:48:05.299Z,8.63
2019-05-19T13:50:34.722Z,5.15
2019-05-19T13:53:04.107Z,4.70
2019-05-19T13:55:33.527Z,3.40
2019-05-19T13:58:03.645Z,10.40
2019-05-19T14:00:33.067Z,6.40
2019-05-19T14:03:02.510Z,4.42
2019-05-19T14:05:31.956Z,3.58
2019-05-19T14:08:01.377Z,4.20
2019-05-19T14:10:30.842Z,5.45
2019-05-19T14:13:00.228Z,3.92
2019-05-19T14:15:29.611Z,4.97
2019-05-19T14:17:59.103Z,3.85
2019-05-19T14:20:28.719Z,3.58
2019-05-19T14:22:58.146Z,2.95
2019-05-19T14:25:27.531Z,5.05
2019-05-19T14:27:56.931Z,4.28
2019-05-19T14:30:26.275Z,3.17
2019-05-19T14:32:57.643Z,4.83
2019-05-19T14:35:26.720Z,3.55
2019-05-19T14:37:56.136Z,5.90
2019-05-19T14:40:25.533Z,2.85
2019-05-19T14:42:59.052Z,4.10
2019-05-19T14:45:28.479Z,4.67
2019-05-19T14:47:57.883Z,3.85
2019-05-19T14:50:27.342Z,8.40
2019-05-19T14:52:56.732Z,3.12
2019-05-19T14:55:26.163Z,3.35
2019-05-19T14:57:55.548Z,5.37
2019-05-19T15:00:24.964Z,4.00
2019-05-19T15:02:54.400Z,3.20
2019-05-19T15:05:23.828Z,4.17
2019-05-19T15:07:53.243Z,4.20
2019-05-19T15:10:23.127Z,5.30
2019-05-19T15:12:52.512Z,4.30
2019-05-19T15:15:22.210Z,4.62
2019-05-19T15:17:51.596Z,5.47
2019-05-19T15:20:20.977Z,3.02
2019-05-19T15:22:50.376Z,3.85
2019-05-19T15:25:19.885Z,6.12
2019-05-19T15:27:59.872Z,3.75
2019-05-19T15:30:20.531Z,4.12
2019-05-19T15:32:49.968Z,4.20
2019-05-19T15:35:19.348Z,4.87
2019-05-19T15:37:48.744Z,3.70
2019-05-19T15:40:18.158Z,3.58
2019-05-19T15:42:47.576Z,7.05
2019-05-19T15:45:17.058Z,5.67
2019-05-19T15:47:46.548Z,4.87
2019-05-19T15:50:16.741Z,3.30
2019-05-19T15:52:46.165Z,4.50
2019-05-19T15:55:15.559Z,4.92
2019-05-19T15:57:44.980Z,5.67
2019-05-19T16:00:14.418Z,7.05
2019-05-19T16:02:44.111Z,3.72
2019-05-19T16:05:14.760Z,9.05
2019-05-19T16:07:45.172Z,4.45
2019-05-19T16:10:15.039Z,4.65
2019-05-19T16:12:44.439Z,4.25
2019-05-19T16:15:14.163Z,4.65
2019-05-19T16:17:43.535Z,9.25
2019-05-19T16:20:14.593Z,5.55
2019-05-19T16:22:44.121Z,4.33
2019-05-19T16:25:13.648Z,4.83
2019-05-19T16:27:43.054Z,5.67
2019-05-19T16:30:12.513Z,4.22
2019-05-19T16:32:41.911Z,4.05
2019-05-19T16:35:11.301Z,4.62
2019-05-19T16:37:40.713Z,3.92
2019-05-19T16:40:10.201Z,4.33
2019-05-19T16:42:39.647Z,4.72
2019-05-19T16:45:10.102Z,4.53
2019-05-19T16:47:39.516Z,4.92
2019-05-19T16:50:09.224Z,4.87
2019-05-19T16:52:38.696Z,7.22
2019-05-19T16:55:23.359Z,4.80
2019-05-19T16:57:52.840Z,4.62
2019-05-19T17:00:23.659Z,4.67
2019-05-19T17:02:53.087Z,5.08
2019-05-19T17:05:22.584Z,4.35
2019-05-19T17:07:52.131Z,4.92
2019-05-19T17:10:21.557Z,5.33
2019-05-19T17:12:50.979Z,5.33
2019-05-19T17:15:21.254Z,5.12
2019-05-19T17:17:50.710Z,5.22
2019-05-19T17:20:20.343Z,4.05
2019-05-19T17:22:49.832Z,4.55
2019-05-19T17:25:19.306Z,5.67
2019-05-19T17:27:48.708Z,4.87
2019-05-19T17:30:19.994Z,7.37
2019-05-19T17:32:49.391Z,6.35
2019-05-19T17:35:19.539Z,5.65
2019-05-19T17:37:48.947Z,5.62
2019-05-19T17:40:18.584Z,5.30
2019-05-19T17:42:48.002Z,7.10
2019-05-19T17:45:17.383Z,6.25
2019-05-19T17:47:46.810Z,5.92
2019-05-19T17:50:18.910Z,5.80
2019-05-19T17:52:48.339Z,7.05
2019-05-19T17:55:17.816Z,10.30
2019-05-19T17:57:48.017Z,5.42
2019-05-19T18:00:21.264Z,5.17
2019-05-19T18:02:50.687Z,6.03
2019-05-19T18:05:20.128Z,8.00
2019-05-19T18:07:49.612Z,5.95
2019-05-19T18:10:19.452Z,6.00
2019-05-19T18:12:48.847Z,9.08
2019-05-19T18:15:18.236Z,11.15
2019-05-19T18:17:50.723Z,8.30
2019-05-19T18:20:23.701Z,7.78
2019-05-19T18:22:51.169Z,8.18
2019-05-19T18:25:20.661Z,7.97
2019-05-19T18:27:50.122Z,9.88
2019-05-19T18:30:19.652Z,8.28
2019-05-19T18:32:49.110Z,10.40
2019-05-19T18:35:18.498Z,8.08
2019-05-19T18:37:47.931Z,8.43
2019-05-19T18:40:17.743Z,8.50
2019-05-19T18:42:48.267Z,9.55
2019-05-19T18:45:17.766Z,8.18
2019-05-19T18:47:47.165Z,8.23
2019-05-19T18:50:16.683Z,8.68
2019-05-19T18:52:46.106Z,10.00
2019-05-19T18:55:15.729Z,10.10
2019-05-19T18:57:45.133Z,11.97
2019-05-19T19:00:19.108Z,9.50
2019-05-19T19:02:48.544Z,10.78
2019-05-19T19:05:18.915Z,10.20
2019-05-19T19:07:53.515Z,10.43
2019-05-19T19:10:22.992Z,11.45
2019-05-19T19:12:52.400Z,10.85
2019-05-19T19:15:21.791Z,9.15
2019-05-19T19:17:51.246Z,9.10
2019-05-19T19:20:21.824Z,8.33
2019-05-19T19:22:51.565Z,7.95
2019-05-19T19:25:20.996Z,9.85
2019-05-19T19:27:50.399Z,8.98
2019-05-19T19:30:19.850Z,9.15
2019-05-19T19:32:49.227Z,12.58
2019-05-19T19:35:18.724Z,11.00
2019-05-19T19:37:48.047Z,9.70
2019-05-19T19:40:23.457Z,10.48
2019-05-19T19:42:52.890Z,11.60
2019-05-19T19:45:22.304Z,10.72
2019-05-19T19:47:53.727Z,11.15
2019-05-19T19:50:23.155Z,10.90
2019-05-19T19:52:52.483Z,12.20
2019-05-19T19:55:21.869Z,10.93
2019-05-19T19:57:51.346Z,11.30
2019-05-19T20:00:45.707Z,11.48
2019-05-19T20:03:15.135Z,11.05
2019-05-19T20:05:44.604Z,11.35
2019-05-19T20:08:14.026Z,10.48
2019-05-19T20:10:48.349Z,11.15
2019-05-19T20:13:17.777Z,10.58
2019-05-19T20:15:47.186Z,9.98
2019-05-19T20:18:16.582Z,10.60
2019-05-19T20:20:45.959Z,10.60
2019-05-19T20:23:15.372Z,10.63
2019-05-19T20:25:44.765Z,8.78
2019-05-19T20:28:14.207Z,9.65
2019-05-19T20:30:43.654Z,10.43
2019-05-19T20:33:13.055Z,9.35
2019-05-19T20:35:42.508Z,9.33
2019-05-19T20:38:12.804Z,9.20
2019-05-19T20:40:42.390Z,10.90
2019-05-19T20:43:11.792Z,9.48
2019-05-19T20:45:41.262Z,13.98
2019-05-19T20:48:10.634Z,9.48
2019-05-19T20:50:40.076Z,10.50
2019-05-19T20:53:09.648Z,10.23
2019-05-19T20:55:39.055Z,9.35
2019-05-19T20:58:08.508Z,10.20
2019-05-19T21:00:49.393Z,10.80
2019-05-19T21:03:08.986Z,8.68
2019-05-19T21:05:38.523Z,9.10
2019-05-19T21:08:07.869Z,8.98
2019-05-19T21:10:37.230Z,8.05
2019-05-19T21:13:06.611Z,9.13
2019-05-19T21:15:36.000Z,8.25
2019-05-19T21:18:05.543Z,8.85
2019-05-19T21:20:34.940Z,9.75
2019-05-19T21:23:04.565Z,8.60
2019-05-19T21:25:33.968Z,12.43
2019-05-19T21:28:03.417Z,8.88
2019-05-19T21:30:32.820Z,8.65
2019-05-19T21:33:02.244Z,7.95
2019-05-19T21:35:31.666Z,9.15
2019-05-19T21:38:01.091Z,8.73
2019-05-19T21:40:30.521Z,8.55
2019-05-19T21:43:00.002Z,7.70
2019-05-19T21:45:29.480Z,7.70
2019-05-19T21:47:58.987Z,10.65
2019-05-19T21:50:28.415Z,7.42
2019-05-19T21:52:57.787Z,9.15
2019-05-19T21:55:27.221Z,7.67
2019-05-19T21:57:56.664Z,7.78
2019-05-19T22:00:29.990Z,8.37
2019-05-19T22:02:59.382Z,8.03
2019-05-19T22:05:28.883Z,9.67
2019-05-19T22:08:07.509Z,8.07
2019-05-19T22:10:36.933Z,9.97
2019-05-19T22:13:06.328Z,10.47
2019-05-19T22:15:35.717Z,9.20
2019-05-19T22:18:05.214Z,9.37
2019-05-19T22:20:34.741Z,8.58
2019-05-19T22:23:04.106Z,9.40
2019-05-19T22:25:33.519Z,8.83
2019-05-19T22:28:03.019Z,8.53
2019-05-19T22:30:32.391Z,8.98
2019-05-19T22:33:01.899Z,8.58
2019-05-19T22:35:31.317Z,8.73
2019-05-19T22:38:00.906Z,8.80
2019-05-19T22:40:30.339Z,8.50
2019-05-19T22:42:59.766Z,7.78
2019-05-19T22:45:29.875Z,7.70
2019-05-19T22:47:59.268Z,8.43
2019-05-19T22:50:28.711Z,8.38
2019-05-19T22:52:58.099Z,7.70
2019-05-19T22:55:27.544Z,8.33
2019-05-19T22:57:56.942Z,7.83
2019-05-19T23:00:27.622Z,8.83
2019-05-19T23:02:56.998Z,7.47
2019-05-19T23:05:26.464Z,7.97
2019-05-19T23:07:55.947Z,7.87
2019-05-19T23:10:25.368Z,8.57
2019-05-19T23:12:54.765Z,7.50
2019-05-19T23:15:24.391Z,7.90
2019-05-19T23:17:54.022Z,9.10
2019-05-19T23:20:23.442Z,8.93
2019-05-19T23:22:52.816Z,8.98
2019-05-19T23:25:22.215Z,9.87
2019-05-19T23:27:51.648Z,8.10
2019-05-19T23:30:21.219Z,9.23
2019-05-19T23:32:50.679Z,8.33
2019-05-19T23:35:20.071Z,8.87
2019-05-19T23:37:49.620Z,8.13
2019-05-19T23:40:19.006Z,9.20
2019-05-19T23:42:48.403Z,8.08
2019-05-19T23:45:17.851Z,7.47
2019-05-19T23:47:47.241Z,8.48
2019-05-19T23:50:16.808Z,8.50
2019-05-19T23:52:46.222Z,8.45
2019-05-19T23:55:15.719Z,8.95
2019-05-19T23:57:45.148Z,9.25
